createdAt,value
2023-05-19T00:00:18.051Z,1019.41
2023-05-19T00:01:18.066Z,1019.40
2023-05-19T00:02:18.051Z,1019.39
2023-05-19T00:03:18.167Z,1019.38
2023-05-19T00:04:18.003Z,1019.38
2023-05-19T00:05:18.027Z,1019.38
2023-05-19T00:06:18.117Z,1019.39
2023-05-19T00:07:17.993Z,1019.38
2023-05-19T00:08:17.970Z,1019.37
2023-05-19T00:09:17.966Z,1019.37
2023-05-19T00:10:17.950Z,1019.36
2023-05-19T00:11:17.966Z,1019.35
2023-05-19T00:12:17.913Z,1019.34
2023-05-19T00:13:17.943Z,1019.34
2023-05-19T00:14:17.897Z,1019.34
2023-05-19T00:15:17.955Z,1019.33
2023-05-19T00:16:17.936Z,1019.32
2023-05-19T00:17:17.896Z,1019.31
2023-05-19T00:18:17.851Z,1019.30
2023-05-19T00:19:17.959Z,1019.30
2023-05-19T00:20:17.826Z,1019.30
2023-05-19T00:21:17.861Z,1019.31
2023-05-19T00:22:17.892Z,1019.30
2023-05-19T00:23:17.842Z,1019.30
2023-05-19T00:24:17.811Z,1019.29
2023-05-19T00:25:17.820Z,1019.28
2023-05-19T00:26:17.795Z,1019.29
2023-05-19T00:27:17.802Z,1019.28
2023-05-19T00:28:17.749Z,1019.28
2023-05-19T00:29:17.775Z,1019.27
2023-05-19T00:30:17.735Z,1019.26
2023-05-19T00:31:17.915Z,1019.26
2023-05-19T00:32:17.816Z,1019.25
2023-05-19T00:33:17.711Z,1019.25
2023-05-19T00:34:17.684Z,1019.25
2023-05-19T00:35:17.719Z,1019.25
2023-05-19T00:36:17.663Z,1019.25
2023-05-19T00:37:17.677Z,1019.24
2023-05-19T00:38:17.657Z,1019.24
2023-05-19T00:39:17.692Z,1019.23
2023-05-19T00:40:17.631Z,1019.22
2023-05-19T00:41:17.673Z,1019.21
2023-05-19T00:42:17.608Z,1019.21
2023-05-19T00:43:17.633Z,1019.21
2023-05-19T00:44:17.574Z,1019.21
2023-05-19T00:45:17.596Z,1019.21
2023-05-19T00:46:17.624Z,1019.21
2023-05-19T00:47:17.594Z,1019.21
2023-05-19T00:48:17.546Z,1019.21
2023-05-19T00:49:17.568Z,1019.21
2023-05-19T00:50:17.527Z,1019.21
2023-05-19T00:51:17.528Z,1019.21
2023-05-19T00:52:17.511Z,1019.20
2023-05-19T00:53:17.525Z,1019.19
2023-05-19T00:54:17.494Z,1019.19
2023-05-19T00:55:17.496Z,1019.18
2023-05-19T00:56:17.514Z,1019.18
2023-05-19T00:57:17.736Z,1019.19
2023-05-19T00:58:17.517Z,1019.20
2023-05-19T00:59:17.454Z,1019.21
2023-05-19T01:00:17.415Z,1019.22
2023-05-19T01:01:17.604Z,1019.22
2023-05-19T01:02:17.405Z,1019.22
2023-05-19T01:03:17.564Z,1019.22
2023-05-19T01:04:17.369Z,1019.21
2023-05-19T01:05:17.366Z,1019.21
2023-05-19T01:06:17.378Z,1019.20
2023-05-19T01:07:17.343Z,1019.19
2023-05-19T01:08:17.378Z,1019.18
2023-05-19T01:09:17.350Z,1019.17
2023-05-19T01:10:17.345Z,1019.18
2023-05-19T01:11:17.317Z,1019.19
2023-05-19T01:12:17.326Z,1019.19
2023-05-19T01:13:17.279Z,1019.18
2023-05-19T01:14:17.365Z,1019.18
2023-05-19T01:15:17.253Z,1019.19
2023-05-19T01:16:17.309Z,1019.18
2023-05-19T01:17:17.264Z,1019.19
2023-05-19T01:18:17.253Z,1019.18
2023-05-19T01:19:17.252Z,1019.17
2023-05-19T01:20:17.254Z,1019.16
2023-05-19T01:21:17.207Z,1019.16
2023-05-19T01:22:17.218Z,1019.17
2023-05-19T01:23:17.173Z,1019.16
2023-05-19T01:24:17.197Z,1019.16
2023-05-19T01:25:17.172Z,1019.17
2023-05-19T01:26:17.187Z,1019.17
2023-05-19T01:27:17.130Z,1019.17
2023-05-19T01:28:17.146Z,1019.17
2023-05-19T01:29:17.111Z,1019.16
2023-05-19T01:30:17.152Z,1019.15
2023-05-19T01:31:17.102Z,1019.14
2023-05-19T01:32:17.106Z,1019.15
2023-05-19T01:33:17.072Z,1019.16
2023-05-19T01:34:17.094Z,1019.16
2023-05-19T01:35:17.081Z,1019.16
2023-05-19T01:36:17.069Z,1019.16
2023-05-19T01:37:17.047Z,1019.16
2023-05-19T01:38:17.046Z,1019.17
2023-05-19T01:39:17.018Z,1019.16
2023-05-19T01:40:17.033Z,1019.16
2023-05-19T01:41:17.025Z,1019.16
2023-05-19T01:42:17.013Z,1019.16
2023-05-19T01:43:16.973Z,1019.15
2023-05-19T01:44:16.988Z,1019.14
2023-05-19T01:45:16.956Z,1019.15
2023-05-19T01:46:17.072Z,1019.14
2023-05-19T01:47:16.961Z,1019.15
2023-05-19T01:48:16.950Z,1019.15
2023-05-19T01:49:16.923Z,1019.14
2023-05-19T01:50:16.930Z,1019.14
2023-05-19T01:51:16.890Z,1019.14
2023-05-19T01:52:16.919Z,1019.14
2023-05-19T01:53:16.905Z,1019.15
2023-05-19T01:54:16.877Z,1019.15
2023-05-19T01:55:16.854Z,1019.16
2023-05-19T01:56:16.858Z,1019.15
2023-05-19T01:57:16.831Z,1019.15
2023-05-19T01:58:16.840Z,1019.16
2023-05-19T01:59:16.849Z,1019.16
2023-05-19T02:00:17.201Z,1019.16
2023-05-19T02:01:16.805Z,1019.16
2023-05-19T02:02:16.796Z,1019.15
2023-05-19T02:03:16.785Z,1019.14
2023-05-19T02:04:16.804Z,1019.14
2023-05-19T02:05:16.761Z,1019.14
2023-05-19T02:06:16.761Z,1019.14
2023-05-19T02:07:16.719Z,1019.15
2023-05-19T02:08:16.743Z,1019.15
2023-05-19T02:09:16.717Z,1019.16
2023-05-19T02:10:16.718Z,1019.16
2023-05-19T02:11:16.696Z,1019.17
2023-05-19T02:12:16.697Z,1019.17
2023-05-19T02:13:16.669Z,1019.18
2023-05-19T02:14:16.680Z,1019.19
2023-05-19T02:15:16.651Z,1019.19
2023-05-19T02:16:16.735Z,1019.20
2023-05-19T02:17:16.639Z,1019.20
2023-05-19T02:18:16.639Z,1019.20
2023-05-19T02:19:16.634Z,1019.20
2023-05-19T02:20:16.615Z,1019.20
2023-05-19T02:21:16.576Z,1019.21
2023-05-19T02:22:16.610Z,1019.22
2023-05-19T02:23:16.566Z,1019.23
2023-05-19T02:24:16.571Z,1019.23
2023-05-19T02:25:16.553Z,1019.25
2023-05-19T02:26:16.544Z,1019.26
2023-05-19T02:27:16.517Z,1019.26
2023-05-19T02:28:16.537Z,1019.26
2023-05-19T02:29:16.535Z,1019.26
2023-05-19T02:30:16.503Z,1019.25
2023-05-19T02:31:16.469Z,1019.25
2023-05-19T02:32:16.611Z,1019.25
2023-05-19T02:33:16.455Z,1019.26
2023-05-19T02:34:16.462Z,1019.25
2023-05-19T02:35:16.443Z,1019.24
2023-05-19T02:36:16.438Z,1019.23
2023-05-19T02:37:16.434Z,1019.23
2023-05-19T02:38:16.414Z,1019.23
2023-05-19T02:39:16.404Z,1019.22
2023-05-19T02:40:16.405Z,1019.22
2023-05-19T02:41:16.382Z,1019.21
2023-05-19T02:42:16.387Z,1019.21
2023-05-19T02:43:16.344Z,1019.20
2023-05-19T02:44:16.354Z,1019.19
2023-05-19T02:45:16.319Z,1019.18
2023-05-19T02:46:16.372Z,1019.16
2023-05-19T02:47:16.343Z,1019.14
2023-05-19T02:48:16.354Z,1019.13
2023-05-19T02:49:16.288Z,1019.13
2023-05-19T02:50:16.297Z,1019.12
2023-05-19T02:51:16.260Z,1019.12
2023-05-19T02:52:16.309Z,1019.12
2023-05-19T02:53:16.277Z,1019.12
2023-05-19T02:54:16.274Z,1019.12
2023-05-19T02:55:16.218Z,1019.13
2023-05-19T02:56:16.250Z,1019.13
2023-05-19T02:57:16.217Z,1019.13
2023-05-19T02:58:16.214Z,1019.13
2023-05-19T02:59:16.194Z,1019.12
2023-05-19T03:00:16.220Z,1019.11
2023-05-19T03:01:16.219Z,1019.11
2023-05-19T03:02:16.235Z,1019.11
2023-05-19T03:03:16.281Z,1019.10
2023-05-19T03:04:16.145Z,1019.09
2023-05-19T03:05:16.140Z,1019.10
2023-05-19T03:06:16.150Z,1019.10
2023-05-19T03:07:16.109Z,1019.11
2023-05-19T03:08:16.115Z,1019.12
2023-05-19T03:09:16.079Z,1019.12
2023-05-19T03:10:16.097Z,1019.13
2023-05-19T03:11:16.065Z,1019.13
2023-05-19T03:12:16.071Z,1019.12
2023-05-19T03:13:16.034Z,1019.12
2023-05-19T03:14:16.042Z,1019.12
2023-05-19T03:15:16.034Z,1019.12
2023-05-19T03:16:16.057Z,1019.12
2023-05-19T03:17:16.073Z,1019.12
2023-05-19T03:18:16.044Z,1019.12
2023-05-19T03:19:16.000Z,1019.11
2023-05-19T03:20:16.002Z,1019.11
2023-05-19T03:21:15.959Z,1019.11
2023-05-19T03:22:16.020Z,1019.10
2023-05-19T03:23:15.955Z,1019.10
2023-05-19T03:24:15.946Z,1019.10
2023-05-19T03:25:15.933Z,1019.09
2023-05-19T03:26:15.924Z,1019.08
2023-05-19T03:27:15.890Z,1019.08
2023-05-19T03:28:15.922Z,1019.07
2023-05-19T03:29:15.905Z,1019.07
2023-05-19T03:30:15.977Z,1019.06
2023-05-19T03:31:15.852Z,1019.05
2023-05-19T03:32:15.893Z,1019.04
2023-05-19T03:33:16.040Z,1019.03
2023-05-19T03:34:15.842Z,1019.03
2023-05-19T03:35:15.852Z,1019.03
2023-05-19T03:36:15.820Z,1019.03
2023-05-19T03:37:15.799Z,1019.03
2023-05-19T03:38:15.805Z,1019.04
2023-05-19T03:39:15.765Z,1019.05
2023-05-19T03:40:15.945Z,1019.06
2023-05-19T03:41:16.284Z,1019.07
2023-05-19T03:42:15.777Z,1019.09
2023-05-19T03:43:15.745Z,1019.10
2023-05-19T03:44:15.760Z,1019.12
2023-05-19T03:45:15.710Z,1019.13
2023-05-19T03:46:15.726Z,1019.14
2023-05-19T03:47:15.712Z,1019.15
2023-05-19T03:48:15.696Z,1019.15
2023-05-19T03:49:15.672Z,1019.16
2023-05-19T03:50:15.731Z,1019.16
2023-05-19T03:51:15.643Z,1019.16
2023-05-19T03:52:15.673Z,1019.16
2023-05-19T03:53:15.666Z,1019.16
2023-05-19T03:54:15.672Z,1019.17
2023-05-19T03:55:15.608Z,1019.18
2023-05-19T03:56:15.632Z,1019.19
2023-05-19T03:57:15.605Z,1019.21
2023-05-19T03:58:15.592Z,1019.22
2023-05-19T03:59:15.638Z,1019.23
2023-05-19T04:00:15.558Z,1019.23
2023-05-19T04:01:15.580Z,1019.23
2023-05-19T04:02:16.622Z,1019.23
2023-05-19T04:03:15.577Z,1019.23
2023-05-19T04:04:15.568Z,1019.24
2023-05-19T04:05:15.562Z,1019.23
2023-05-19T04:06:15.500Z,1019.24
2023-05-19T04:07:15.497Z,1019.24
2023-05-19T04:08:15.463Z,1019.25
2023-05-19T04:09:15.478Z,1019.26
2023-05-19T04:10:15.453Z,1019.26
2023-05-19T04:11:15.474Z,1019.26
2023-05-19T04:12:15.444Z,1019.27
2023-05-19T04:13:15.438Z,1019.28
2023-05-19T04:14:15.414Z,1019.28
2023-05-19T04:15:15.441Z,1019.28
2023-05-19T04:16:15.419Z,1019.29
2023-05-19T04:17:15.419Z,1019.29
2023-05-19T04:18:15.418Z,1019.29
2023-05-19T04:19:15.422Z,1019.29
2023-05-19T04:20:15.366Z,1019.29
2023-05-19T04:21:15.364Z,1019.30
2023-05-19T04:22:15.343Z,1019.31
2023-05-19T04:23:15.385Z,1019.32
2023-05-19T04:24:15.304Z,1019.32
2023-05-19T04:25:15.320Z,1019.32
2023-05-19T04:26:15.289Z,1019.32
2023-05-19T04:27:15.305Z,1019.32
2023-05-19T04:28:15.275Z,1019.32
2023-05-19T04:29:15.293Z,1019.31
2023-05-19T04:30:16.714Z,1019.30
2023-05-19T04:31:15.361Z,1019.29
2023-05-19T04:32:15.244Z,1019.27
2023-05-19T04:33:15.234Z,1019.26
2023-05-19T04:34:15.192Z,1019.24
2023-05-19T04:35:15.246Z,1019.24
2023-05-19T04:36:15.243Z,1019.23
2023-05-19T04:37:15.195Z,1019.22
2023-05-19T04:38:15.160Z,1019.21
2023-05-19T04:39:15.179Z,1019.21
2023-05-19T04:40:15.144Z,1019.20
2023-05-19T04:41:15.246Z,1019.19
2023-05-19T04:42:15.111Z,1019.18
2023-05-19T04:43:15.133Z,1019.17
2023-05-19T04:44:15.103Z,1019.17
2023-05-19T04:45:15.117Z,1019.17
2023-05-19T04:46:15.150Z,1019.18
2023-05-19T04:47:15.110Z,1019.18
2023-05-19T04:48:15.061Z,1019.18
2023-05-19T04:49:15.079Z,1019.19
2023-05-19T04:50:15.043Z,1019.19
2023-05-19T04:51:15.055Z,1019.19
2023-05-19T04:52:15.008Z,1019.20
2023-05-19T04:53:15.053Z,1019.20
2023-05-19T04:54:15.016Z,1019.20
2023-05-19T04:55:15.028Z,1019.20
2023-05-19T04:56:14.997Z,1019.21
2023-05-19T04:57:14.982Z,1019.20
2023-05-19T04:58:14.946Z,1019.20
2023-05-19T04:59:15.004Z,1019.20
2023-05-19T05:00:14.991Z,1019.20
2023-05-19T05:01:14.956Z,1019.19
2023-05-19T05:02:14.996Z,1019.19
2023-05-19T05:03:15.060Z,1019.19
2023-05-19T05:04:14.937Z,1019.19
2023-05-19T05:05:14.926Z,1019.17
2023-05-19T05:06:14.857Z,1019.16
2023-05-19T05:07:14.899Z,1019.15
2023-05-19T05:08:14.872Z,1019.15
2023-05-19T05:09:14.862Z,1019.15
2023-05-19T05:10:14.835Z,1019.14
2023-05-19T05:11:14.850Z,1019.14
2023-05-19T05:12:14.798Z,1019.14
2023-05-19T05:13:14.809Z,1019.14
2023-05-19T05:14:14.780Z,1019.15
2023-05-19T05:15:14.825Z,1019.14
2023-05-19T05:16:14.824Z,1019.14
2023-05-19T05:17:14.792Z,1019.13
2023-05-19T05:18:14.730Z,1019.13
2023-05-19T05:19:14.834Z,1019.11
2023-05-19T05:20:14.723Z,1019.11
2023-05-19T05:21:14.709Z,1019.10
2023-05-19T05:22:14.720Z,1019.10
2023-05-19T05:23:14.744Z,1019.10
2023-05-19T05:24:14.706Z,1019.11
2023-05-19T05:25:14.660Z,1019.12
2023-05-19T05:26:14.675Z,1019.13
2023-05-19T05:27:14.644Z,1019.13
2023-05-19T05:28:14.665Z,1019.14
2023-05-19T05:29:14.636Z,1019.15
2023-05-19T05:30:14.637Z,1019.15
2023-05-19T05:31:14.605Z,1019.16
2023-05-19T05:32:14.650Z,1019.16
2023-05-19T05:33:14.738Z,1019.16
2023-05-19T05:34:14.591Z,1019.17
2023-05-19T05:35:14.577Z,1019.17
2023-05-19T05:36:14.581Z,1019.17
2023-05-19T05:37:15.304Z,1019.17
2023-05-19T05:38:14.543Z,1019.18
2023-05-19T05:39:14.523Z,1019.18
2023-05-19T05:40:14.548Z,1019.19
2023-05-19T05:41:14.523Z,1019.20
2023-05-19T05:42:14.509Z,1019.20
2023-05-19T05:43:14.475Z,1019.19
2023-05-19T05:44:14.519Z,1019.18
2023-05-19T05:45:14.451Z,1019.18
2023-05-19T05:46:14.498Z,1019.16
2023-05-19T05:47:14.455Z,1019.16
2023-05-19T05:48:14.521Z,1019.14
2023-05-19T05:49:14.415Z,1019.13
2023-05-19T05:50:14.415Z,1019.12
2023-05-19T05:51:14.398Z,1019.11
2023-05-19T05:52:14.400Z,1019.11
2023-05-19T05:53:14.392Z,1019.11
2023-05-19T05:54:14.382Z,1019.11
2023-05-19T05:55:14.347Z,1019.10
2023-05-19T05:56:14.366Z,1019.10
2023-05-19T05:57:14.328Z,1019.09
2023-05-19T05:58:14.350Z,1019.08
2023-05-19T05:59:14.328Z,1019.09
2023-05-19T06:00:14.316Z,1019.09
2023-05-19T06:01:14.304Z,1019.10
2023-05-19T06:02:14.394Z,1019.10
2023-05-19T06:03:14.385Z,1019.11
2023-05-19T06:04:14.285Z,1019.12
2023-05-19T06:05:14.343Z,1019.12
2023-05-19T06:06:14.268Z,1019.13
2023-05-19T06:07:14.260Z,1019.13
2023-05-19T06:08:14.258Z,1019.14
2023-05-19T06:09:14.199Z,1019.14
2023-05-19T06:10:14.208Z,1019.13
2023-05-19T06:11:14.227Z,1019.13
2023-05-19T06:12:14.202Z,1019.13
2023-05-19T06:13:14.167Z,1019.12
2023-05-19T06:14:14.195Z,1019.11
2023-05-19T06:15:14.152Z,1019.10
2023-05-19T06:16:14.186Z,1019.08
2023-05-19T06:17:14.143Z,1019.08
2023-05-19T06:18:14.175Z,1019.07
2023-05-19T06:19:14.140Z,1019.07
2023-05-19T06:20:14.115Z,1019.06
2023-05-19T06:21:14.070Z,1019.06
2023-05-19T06:22:14.079Z,1019.05
2023-05-19T06:23:14.081Z,1019.04
2023-05-19T06:24:14.072Z,1019.04
2023-05-19T06:25:14.044Z,1019.03
2023-05-19T06:26:14.065Z,1019.02
2023-05-19T06:27:14.016Z,1019.01
2023-05-19T06:28:14.028Z,1019.00
2023-05-19T06:29:14.012Z,1019.01
2023-05-19T06:30:14.041Z,1018.99
2023-05-19T06:31:14.022Z,1018.99
2023-05-19T06:32:13.985Z,1018.99
2023-05-19T06:33:13.965Z,1018.98
2023-05-19T06:34:13.960Z,1018.97
2023-05-19T06:35:13.939Z,1018.96
2023-05-19T06:36:13.946Z,1018.96
2023-05-19T06:37:13.904Z,1018.97
2023-05-19T06:38:13.930Z,1018.96
2023-05-19T06:39:13.897Z,1018.94
2023-05-19T06:40:13.943Z,1018.94
2023-05-19T06:41:13.892Z,1018.95
2023-05-19T06:42:13.880Z,1018.94
2023-05-19T06:43:13.842Z,1018.96
2023-05-19T06:44:13.871Z,1018.96
2023-05-19T06:45:13.830Z,1018.95
2023-05-19T06:46:13.868Z,1018.96
2023-05-19T06:47:13.931Z,1018.95
2023-05-19T06:48:13.862Z,1018.94
2023-05-19T06:49:13.781Z,1018.94
2023-05-19T06:50:13.820Z,1018.93
2023-05-19T06:51:13.775Z,1018.92
2023-05-19T06:52:13.774Z,1018.91
2023-05-19T06:53:13.767Z,1018.89
2023-05-19T06:54:13.755Z,1018.87
2023-05-19T06:55:13.746Z,1018.87
2023-05-19T06:56:13.742Z,1018.87
2023-05-19T06:57:13.692Z,1018.87
2023-05-19T06:58:13.718Z,1018.86
2023-05-19T06:59:13.691Z,1018.84
2023-05-19T07:00:16.097Z,1018.83
2023-05-19T07:01:13.700Z,1018.83
2023-05-19T07:02:13.738Z,1018.80
2023-05-19T07:03:13.671Z,1018.79
2023-05-19T07:04:13.751Z,1018.77
2023-05-19T07:05:13.786Z,1018.77
2023-05-19T07:06:13.618Z,1018.75
2023-05-19T07:07:13.595Z,1018.76
2023-05-19T07:08:13.598Z,1018.76
2023-05-19T07:09:13.586Z,1018.77
2023-05-19T07:10:13.581Z,1018.78
2023-05-19T07:11:13.564Z,1018.77
2023-05-19T07:12:13.555Z,1018.79
2023-05-19T07:13:13.525Z,1018.78
2023-05-19T07:14:13.565Z,1018.78
2023-05-19T07:15:13.509Z,1018.77
2023-05-19T07:16:13.578Z,1018.77
2023-05-19T07:17:13.577Z,1018.77
2023-05-19T07:18:13.560Z,1018.77
2023-05-19T07:19:13.535Z,1018.77
2023-05-19T07:20:13.478Z,1018.79
2023-05-19T07:21:13.478Z,1018.77
2023-05-19T07:22:13.450Z,1018.79
2023-05-19T07:23:13.910Z,1018.78
2023-05-19T07:24:13.450Z,1018.78
2023-05-19T07:25:13.413Z,1018.75
2023-05-19T07:26:13.403Z,1018.75
2023-05-19T07:27:13.375Z,1018.75
2023-05-19T07:28:13.381Z,1018.73
2023-05-19T07:29:13.370Z,1018.71
2023-05-19T07:30:13.366Z,1018.71
2023-05-19T07:31:13.336Z,1018.71
2023-05-19T07:32:13.478Z,1018.69
2023-05-19T07:33:13.396Z,1018.69
2023-05-19T07:34:13.321Z,1018.67
2023-05-19T07:35:13.537Z,1018.65
2023-05-19T07:36:13.315Z,1018.64
2023-05-19T07:37:13.278Z,1018.63
2023-05-19T07:38:13.293Z,1018.63
2023-05-19T07:39:13.306Z,1018.62
2023-05-19T07:40:13.264Z,1018.64
2023-05-19T07:41:13.235Z,1018.64
2023-05-19T07:42:13.257Z,1018.62
2023-05-19T07:43:13.200Z,1018.60
2023-05-19T07:44:13.233Z,1018.58
2023-05-19T07:45:13.172Z,1018.58
2023-05-19T07:46:13.292Z,1018.55
2023-05-19T07:47:13.179Z,1018.54
2023-05-19T07:48:13.211Z,1018.54
2023-05-19T07:49:13.159Z,1018.54
2023-05-19T07:50:13.159Z,1018.55
2023-05-19T07:51:13.119Z,1018.54
2023-05-19T07:52:13.153Z,1018.52
2023-05-19T07:53:13.113Z,1018.50
2023-05-19T07:54:13.109Z,1018.48
2023-05-19T07:55:13.080Z,1018.47
2023-05-19T07:56:13.084Z,1018.44
2023-05-19T07:57:13.050Z,1018.42
2023-05-19T07:58:13.054Z,1018.42
2023-05-19T07:59:13.072Z,1018.40
2023-05-19T08:00:13.072Z,1018.40
2023-05-19T08:01:13.027Z,1018.39
2023-05-19T08:02:13.154Z,1018.39
2023-05-19T08:03:13.218Z,1018.39
2023-05-19T08:04:13.346Z,1018.39
2023-05-19T08:05:12.992Z,1018.41
2023-05-19T08:06:12.976Z,1018.40
2023-05-19T08:07:12.968Z,1018.39
2023-05-19T08:08:12.953Z,1018.39
2023-05-19T08:09:12.934Z,1018.40
2023-05-19T08:10:12.939Z,1018.37
2023-05-19T08:11:12.937Z,1018.37
2023-05-19T08:12:12.923Z,1018.35
2023-05-19T08:13:12.886Z,1018.34
2023-05-19T08:14:12.906Z,1018.33
2023-05-19T08:15:12.875Z,1018.31
2023-05-19T08:16:12.933Z,1018.28
2023-05-19T08:17:12.879Z,1018.28
2023-05-19T08:18:12.933Z,1018.25
2023-05-19T08:19:12.892Z,1018.25
2023-05-19T08:20:12.852Z,1018.23
2023-05-19T08:21:12.805Z,1018.24
2023-05-19T08:22:12.827Z,1018.25
2023-05-19T08:23:12.829Z,1018.25
2023-05-19T08:24:12.794Z,1018.27
2023-05-19T08:25:12.759Z,1018.26
2023-05-19T08:26:12.774Z,1018.23
2023-05-19T08:27:12.746Z,1018.25
2023-05-19T08:28:12.759Z,1018.22
2023-05-19T08:29:12.743Z,1018.22
2023-05-19T08:30:12.745Z,1018.22
2023-05-19T08:31:12.799Z,1018.20
2023-05-19T08:32:13.462Z,1018.22
2023-05-19T08:33:12.737Z,1018.19
2023-05-19T08:34:12.696Z,1018.17
2023-05-19T08:35:12.665Z,1018.16
2023-05-19T08:36:12.690Z,1018.17
2023-05-19T08:37:12.644Z,1018.15
2023-05-19T08:38:12.650Z,1018.14
2023-05-19T08:39:12.618Z,1018.11
2023-05-19T08:40:12.643Z,1018.07
2023-05-19T08:41:12.626Z,1018.07
2023-05-19T08:42:12.604Z,1018.05
2023-05-19T08:43:12.583Z,1018.02
2023-05-19T08:44:12.604Z,1018.01
2023-05-19T08:45:12.560Z,1017.98
2023-05-19T08:46:12.621Z,1017.96
2023-05-19T08:47:12.837Z,1017.94
2023-05-19T08:48:12.583Z,1017.95
2023-05-19T08:49:12.509Z,1017.93
2023-05-19T08:50:12.527Z,1017.91
2023-05-19T08:51:12.519Z,1017.88
2023-05-19T08:52:12.502Z,1017.90
2023-05-19T08:53:24.696Z,1017.88
2023-05-19T08:54:12.564Z,1017.86
2023-05-19T08:55:12.459Z,1017.84
2023-05-19T08:56:12.461Z,1017.84
2023-05-19T08:57:12.432Z,1017.80
2023-05-19T08:58:12.451Z,1017.77
2023-05-19T08:59:12.435Z,1017.77
2023-05-19T09:00:12.410Z,1017.76
2023-05-19T09:01:12.433Z,1017.75
2023-05-19T09:02:12.405Z,1017.73
2023-05-19T09:04:12.424Z,1017.70
2023-05-19T09:05:12.386Z,1017.67
2023-05-19T09:06:12.364Z,1017.66
2023-05-19T09:07:12.328Z,1017.67
2023-05-19T09:08:12.332Z,1017.62
2023-05-19T09:09:12.312Z,1017.65
2023-05-19T09:10:12.332Z,1017.63
2023-05-19T09:11:12.343Z,1017.61
2023-05-19T09:12:12.303Z,1017.62
2023-05-19T09:13:12.285Z,1017.62
2023-05-19T09:14:12.277Z,1017.58
2023-05-19T09:15:12.238Z,1017.55
2023-05-19T09:16:12.358Z,1017.56
2023-05-19T09:17:12.288Z,1017.53
2023-05-19T09:18:12.309Z,1017.49
2023-05-19T09:19:12.248Z,1017.49
2023-05-19T09:20:12.224Z,1017.48
2023-05-19T09:21:12.172Z,1017.46
2023-05-19T09:22:12.193Z,1017.48
2023-05-19T09:23:12.185Z,1017.50
2023-05-19T09:24:12.170Z,1017.49
2023-05-19T09:25:12.138Z,1017.48
2023-05-19T09:26:12.157Z,1017.48
2023-05-19T09:27:12.118Z,1017.50
2023-05-19T09:28:12.134Z,1017.52
2023-05-19T09:29:12.135Z,1017.50
2023-05-19T09:30:12.135Z,1017.44
2023-05-19T09:31:12.085Z,1017.47
2023-05-19T09:32:12.128Z,1017.47
2023-05-19T09:33:12.124Z,1017.46
2023-05-19T09:34:12.068Z,1017.46
2023-05-19T09:35:12.070Z,1017.46
2023-05-19T09:36:12.053Z,1017.40
2023-05-19T09:37:12.042Z,1017.40
2023-05-19T09:38:12.025Z,1017.38
2023-05-19T09:39:12.020Z,1017.41
2023-05-19T09:40:13.088Z,1017.38
2023-05-19T09:41:12.013Z,1017.37
2023-05-19T09:42:11.967Z,1017.37
2023-05-19T09:43:11.982Z,1017.35
2023-05-19T09:44:11.946Z,1017.32
2023-05-19T09:45:11.970Z,1017.29
2023-05-19T09:46:13.723Z,1017.31
2023-05-19T09:47:11.951Z,1017.31
2023-05-19T09:48:11.916Z,1017.32
2023-05-19T09:49:11.916Z,1017.31
2023-05-19T09:50:11.885Z,1017.30
2023-05-19T09:51:11.922Z,1017.28
2023-05-19T09:52:12.727Z,1017.19
2023-05-19T09:53:11.899Z,1017.18
2023-05-19T09:54:11.849Z,1017.17
2023-05-19T09:55:11.904Z,1017.14
2023-05-19T09:56:11.820Z,1017.18
2023-05-19T09:57:11.842Z,1017.20
2023-05-19T09:58:12.708Z,1017.19
2023-05-19T09:59:11.838Z,1017.17
2023-05-19T10:00:11.797Z,1017.15
2023-05-19T10:01:11.837Z,1017.14
2023-05-19T10:02:11.759Z,1017.13
2023-05-19T10:03:11.825Z,1017.16
2023-05-19T10:04:11.742Z,1017.19
2023-05-19T10:05:11.824Z,1017.19
2023-05-19T10:06:11.732Z,1017.21
2023-05-19T10:07:11.744Z,1017.20
2023-05-19T10:08:11.710Z,1017.15
2023-05-19T10:09:11.716Z,1017.15
2023-05-19T10:10:11.686Z,1017.16
2023-05-19T10:11:11.714Z,1017.13
2023-05-19T10:12:11.665Z,1017.14
2023-05-19T10:13:11.674Z,1017.09
2023-05-19T10:14:11.718Z,1017.10
2023-05-19T10:15:11.838Z,1017.17
2023-05-19T10:16:11.680Z,1017.10
2023-05-19T10:17:11.657Z,1017.18
2023-05-19T10:18:11.629Z,1017.19
2023-05-19T10:19:11.667Z,1017.14
2023-05-19T10:20:11.586Z,1017.06
2023-05-19T10:21:11.619Z,1017.01
2023-05-19T10:22:11.584Z,1016.96
2023-05-19T10:23:11.589Z,1016.93
2023-05-19T10:24:13.316Z,1016.89
2023-05-19T10:25:11.577Z,1016.90
2023-05-19T10:26:11.553Z,1016.89
2023-05-19T10:27:11.535Z,1016.87
2023-05-19T10:28:11.516Z,1016.87
2023-05-19T10:29:11.714Z,1016.84
2023-05-19T10:30:12.771Z,1016.84
2023-05-19T10:31:11.500Z,1016.89
2023-05-19T10:32:11.686Z,1016.93
2023-05-19T10:33:11.523Z,1016.95
2023-05-19T10:34:11.442Z,1016.95
2023-05-19T10:35:11.488Z,1016.89
2023-05-19T10:36:11.438Z,1016.90
2023-05-19T10:37:11.447Z,1016.88
2023-05-19T10:38:11.412Z,1016.88
2023-05-19T10:39:11.414Z,1016.88
2023-05-19T10:40:11.390Z,1016.86
2023-05-19T10:41:11.427Z,1016.88
2023-05-19T10:42:11.384Z,1016.90
2023-05-19T10:43:11.413Z,1016.90
2023-05-19T10:44:11.341Z,1016.90
2023-05-19T10:45:11.399Z,1016.90
2023-05-19T10:46:11.336Z,1016.88
2023-05-19T10:47:12.794Z,1016.87
2023-05-19T10:48:11.365Z,1016.85
2023-05-19T10:49:11.346Z,1016.87
2023-05-19T10:50:11.275Z,1016.84
2023-05-19T10:51:11.323Z,1016.82
2023-05-19T10:52:11.272Z,1016.86
2023-05-19T10:53:11.299Z,1016.86
2023-05-19T10:54:12.271Z,1016.86
2023-05-19T10:55:11.260Z,1016.87
2023-05-19T10:56:11.215Z,1016.81
2023-05-19T10:57:11.236Z,1016.79
2023-05-19T10:58:11.197Z,1016.73
2023-05-19T10:59:11.227Z,1016.74
2023-05-19T11:00:11.181Z,1016.74
2023-05-19T11:01:11.229Z,1016.76
2023-05-19T11:02:11.202Z,1016.75
2023-05-19T11:03:11.264Z,1016.70
2023-05-19T11:04:11.401Z,1016.66
2023-05-19T11:05:11.206Z,1016.70
2023-05-19T11:06:11.125Z,1016.65
2023-05-19T11:07:11.130Z,1016.68
2023-05-19T11:08:11.096Z,1016.73
2023-05-19T11:09:11.122Z,1016.77
2023-05-19T11:10:11.083Z,1016.71
2023-05-19T11:11:11.120Z,1016.76
2023-05-19T11:12:11.057Z,1016.72
2023-05-19T11:13:11.071Z,1016.69
2023-05-19T11:14:11.091Z,1016.71
2023-05-19T11:15:11.075Z,1016.69
2023-05-19T11:16:11.066Z,1016.63
2023-05-19T11:17:11.365Z,1016.60
2023-05-19T11:18:11.016Z,1016.60
2023-05-19T11:19:11.045Z,1016.60
2023-05-19T11:20:10.987Z,1016.67
2023-05-19T11:21:11.978Z,1016.65
2023-05-19T11:22:10.961Z,1016.64
2023-05-19T11:23:11.080Z,1016.61
2023-05-19T11:24:10.972Z,1016.62
2023-05-19T11:25:10.946Z,1016.64
2023-05-19T11:26:10.934Z,1016.66
2023-05-19T11:27:10.945Z,1016.71
2023-05-19T11:28:10.889Z,1016.67
2023-05-19T11:29:10.931Z,1016.69
2023-05-19T11:30:10.884Z,1016.69
2023-05-19T11:31:11.122Z,1016.62
2023-05-19T11:32:11.075Z,1016.62
2023-05-19T11:33:11.187Z,1016.60
2023-05-19T11:34:10.827Z,1016.57
2023-05-19T11:35:10.887Z,1016.60
2023-05-19T11:36:10.812Z,1016.56
2023-05-19T11:37:10.831Z,1016.51
2023-05-19T11:38:10.791Z,1016.58
2023-05-19T11:39:10.803Z,1016.69
2023-05-19T11:40:10.772Z,1016.70
2023-05-19T11:41:10.810Z,1016.70
2023-05-19T11:42:10.758Z,1016.65
2023-05-19T11:43:10.784Z,1016.69
2023-05-19T11:44:10.734Z,1016.67
2023-05-19T11:45:10.746Z,1016.68
2023-05-19T11:46:10.770Z,1016.67
2023-05-19T11:47:10.736Z,1016.65
2023-05-19T11:48:10.712Z,1016.63
2023-05-19T11:49:10.722Z,1016.59
2023-05-19T11:50:10.665Z,1016.59
2023-05-19T11:51:10.680Z,1016.59
2023-05-19T11:52:10.657Z,1016.60
2023-05-19T11:53:10.712Z,1016.61
2023-05-19T11:54:10.638Z,1016.63
2023-05-19T11:55:10.637Z,1016.67
2023-05-19T11:56:10.621Z,1016.70
2023-05-19T11:57:10.631Z,1016.69
2023-05-19T11:58:10.593Z,1016.69
2023-05-19T11:59:10.658Z,1016.71
2023-05-19T12:00:10.575Z,1016.68
2023-05-19T12:01:10.592Z,1016.65
2023-05-19T12:02:10.592Z,1016.65
2023-05-19T12:03:10.859Z,1016.64
2023-05-19T12:04:10.586Z,1016.62
2023-05-19T12:05:10.627Z,1016.61
2023-05-19T12:06:10.583Z,1016.56